createdAt,value
2022-09-07T00:00:09.324Z,14.49
2022-09-07T00:02:38.038Z,14.25
2022-09-07T00:05:08.151Z,13.55
2022-09-07T00:07:37.347Z,14.39
2022-09-07T00:10:06.976Z,14.40
2022-09-07T00:12:37.333Z,12.63
2022-09-07T00:15:09.521Z,13.93
2022-09-07T00:17:39.128Z,13.38
2022-09-07T00:20:12.118Z,13.34
2022-09-07T00:22:41.329Z,14.16
2022-09-07T00:25:11.072Z,13.93
2022-09-07T00:27:41.664Z,14.01
2022-09-07T00:30:11.671Z,12.74
2022-09-07T00:32:40.350Z,14.11
2022-09-07T00:35:09.968Z,14.00
2022-09-07T00:37:38.687Z,13.85
2022-09-07T00:40:08.882Z,13.83
2022-09-07T00:42:37.976Z,13.91
2022-09-07T00:45:16.915Z,13.90
2022-09-07T00:47:55.579Z,13.95
2022-09-07T00:50:31.882Z,13.16
2022-09-07T00:53:06.754Z,13.16
2022-09-07T00:55:39.139Z,12.16
2022-09-07T00:58:09.471Z,12.84
2022-09-07T01:00:42.028Z,12.03
2022-09-07T01:03:13.539Z,11.92
2022-09-07T01:05:48.360Z,13.75
2022-09-07T01:08:17.709Z,11.95
2022-09-07T01:10:47.461Z,13.59
2022-09-07T01:13:16.345Z,13.63
2022-09-07T01:15:59.958Z,13.57
2022-09-07T01:18:43.173Z,12.62
2022-09-07T01:21:24.951Z,13.77
2022-09-07T01:24:36.169Z,13.75
2022-09-07T01:27:58.396Z,13.75
2022-09-07T01:30:28.612Z,12.48
2022-09-07T01:33:29.229Z,13.36
2022-09-07T01:36:16.983Z,13.66
2022-09-07T01:38:50.519Z,13.02
2022-09-07T01:41:28.523Z,13.15
2022-09-07T01:44:06.969Z,12.87
2022-09-07T01:46:44.498Z,13.45
2022-09-07T01:49:18.967Z,13.64
2022-09-07T01:51:53.307Z,13.46
2022-09-07T01:54:34.061Z,13.55
2022-09-07T01:57:11.625Z,12.61
2022-09-07T01:59:47.402Z,12.22
2022-09-07T02:02:23.701Z,13.62
2022-09-07T02:04:58.193Z,13.73
2022-09-07T02:07:41.505Z,12.92
2022-09-07T02:10:17.429Z,13.59
2022-09-07T02:12:55.503Z,13.43
2022-09-07T02:15:33.087Z,12.49
2022-09-07T02:18:07.087Z,13.51
2022-09-07T02:20:40.633Z,12.43
2022-09-07T02:23:15.526Z,13.37
2022-09-07T02:25:52.464Z,13.41
2022-09-07T02:28:29.206Z,12.74
2022-09-07T02:30:59.506Z,13.36
2022-09-07T02:33:29.795Z,13.18
2022-09-07T02:35:59.313Z,12.99
2022-09-07T02:38:28.326Z,13.43
2022-09-07T02:41:01.025Z,12.52
2022-09-07T02:43:32.401Z,13.43
2022-09-07T02:46:23.869Z,13.35
2022-09-07T02:49:07.457Z,12.33
2022-09-07T02:51:46.677Z,13.26
2022-09-07T02:54:38.639Z,13.35
2022-09-07T02:57:23.197Z,13.31
2022-09-07T03:00:07.120Z,12.71
2022-09-07T03:02:52.275Z,13.34
2022-09-07T03:05:30.661Z,13.33
2022-09-07T03:08:52.802Z,13.30
2022-09-07T03:11:22.381Z,13.26
2022-09-07T03:13:51.073Z,12.28
2022-09-07T03:16:19.787Z,13.21
2022-09-07T03:18:50.614Z,12.29
2022-09-07T03:21:19.627Z,13.11
2022-09-07T03:23:51.683Z,12.87
2022-09-07T03:26:25.638Z,12.19
2022-09-07T03:28:54.797Z,13.00
2022-09-07T03:31:30.947Z,13.08
2022-09-07T03:34:02.419Z,13.09
2022-09-07T03:36:34.649Z,11.17
2022-09-07T03:39:09.532Z,13.05
2022-09-07T03:41:38.486Z,12.97
2022-09-07T03:44:08.860Z,12.90
2022-09-07T03:46:37.684Z,12.82
2022-09-07T03:49:13.404Z,11.72
2022-09-07T03:51:43.910Z,12.83
2022-09-07T03:54:12.594Z,11.68
2022-09-07T03:56:45.672Z,12.82
2022-09-07T03:59:20.353Z,12.82
2022-09-07T04:01:49.529Z,12.80
2022-09-07T04:04:26.849Z,12.80
2022-09-07T04:06:56.000Z,12.80
2022-09-07T04:09:24.997Z,12.71
2022-09-07T04:11:54.093Z,12.64
2022-09-07T04:14:23.156Z,12.63
2022-09-07T04:16:52.149Z,12.71
2022-09-07T04:19:22.357Z,11.56
2022-09-07T04:21:51.500Z,12.67
2022-09-07T04:24:22.894Z,12.58
2022-09-07T04:26:52.594Z,12.64
2022-09-07T04:29:21.475Z,12.56
2022-09-07T04:31:54.246Z,11.14
2022-09-07T04:34:26.612Z,11.95
2022-09-07T04:36:58.733Z,12.66
2022-09-07T04:39:39.177Z,12.63
2022-09-07T04:42:09.779Z,12.68
2022-09-07T04:44:38.820Z,12.74
2022-09-07T04:47:09.546Z,11.61
2022-09-07T04:49:41.818Z,11.29
2022-09-07T04:52:16.274Z,12.88
2022-09-07T04:54:50.966Z,12.34
2022-09-07T04:57:21.798Z,12.93
2022-09-07T05:00:12.397Z,12.85
2022-09-07T05:02:43.736Z,11.98
2022-09-07T05:05:16.653Z,13.02
2022-09-07T05:07:45.651Z,13.03
2022-09-07T05:10:14.564Z,13.06
2022-09-07T05:12:43.676Z,13.07
2022-09-07T05:15:12.927Z,13.11
2022-09-07T05:17:41.805Z,13.14
2022-09-07T05:20:11.395Z,13.20
2022-09-07T05:22:44.443Z,13.23
2022-09-07T05:25:13.103Z,13.28
2022-09-07T05:27:42.486Z,13.36
2022-09-07T05:33:02.552Z,13.45
2022-09-07T05:35:31.628Z,13.50
2022-09-07T05:38:01.788Z,13.59
2022-09-07T05:40:38.491Z,13.67
2022-09-07T05:43:10.594Z,13.75
2022-09-07T05:45:39.884Z,13.84
2022-09-07T05:48:08.869Z,13.94
2022-09-07T05:50:38.277Z,12.96
2022-09-07T05:53:08.342Z,14.17
2022-09-07T05:55:37.000Z,14.22
2022-09-07T05:58:05.835Z,14.40
2022-09-07T06:00:34.552Z,14.30
2022-09-07T06:03:03.239Z,14.62
2022-09-07T06:05:32.112Z,14.07
2022-09-07T06:08:07.286Z,14.86
2022-09-07T06:10:45.890Z,14.90
2022-09-07T06:13:14.572Z,14.90
2022-09-07T06:15:43.274Z,14.79
2022-09-07T06:18:11.979Z,14.88
2022-09-07T06:20:43.728Z,14.63
2022-09-07T06:23:12.380Z,14.81
2022-09-07T06:25:49.938Z,15.23
2022-09-07T06:28:22.436Z,15.20
2022-09-07T06:31:01.224Z,15.24
2022-09-07T06:33:32.065Z,14.96
2022-09-07T06:36:03.114Z,14.58
2022-09-07T06:38:43.072Z,15.27
2022-09-07T06:44:05.902Z,15.60
2022-09-07T06:49:27.148Z,15.77
2022-09-07T06:51:58.479Z,15.84
2022-09-07T06:57:17.636Z,15.97
2022-09-07T06:59:49.137Z,16.06
2022-09-07T07:02:22.535Z,16.17
2022-09-07T07:04:58.501Z,14.51
2022-09-07T07:07:52.702Z,16.37
2022-09-07T07:10:24.783Z,15.42
2022-09-07T07:12:58.536Z,15.72
2022-09-07T07:15:29.506Z,16.44
2022-09-07T07:18:05.399Z,16.55
2022-09-07T07:21:05.155Z,16.27
2022-09-07T07:23:37.679Z,16.78
2022-09-07T07:26:08.820Z,16.94
2022-09-07T07:31:29.772Z,17.19
2022-09-07T07:33:58.565Z,17.28
2022-09-07T07:36:29.948Z,17.38
2022-09-07T07:39:02.493Z,17.33
2022-09-07T07:44:24.906Z,17.65
2022-09-07T07:46:53.779Z,17.80
2022-09-07T07:49:22.584Z,17.94
2022-09-07T07:54:43.523Z,18.24
2022-09-07T07:57:13.027Z,18.03
2022-09-07T07:59:43.054Z,18.46
2022-09-07T08:02:17.686Z,18.55
2022-09-07T08:04:46.581Z,18.39
2022-09-07T08:07:15.820Z,18.63
2022-09-07T08:09:46.779Z,18.93
2022-09-07T08:12:18.904Z,18.07
2022-09-07T08:14:50.557Z,19.17
2022-09-07T08:17:19.376Z,19.32
2022-09-07T08:19:48.032Z,19.37
2022-09-07T08:22:16.686Z,19.59
2022-09-07T08:24:45.246Z,19.71
2022-09-07T08:27:14.587Z,19.86
2022-09-07T08:29:43.141Z,19.94
2022-09-07T08:32:15.509Z,20.09
2022-09-07T08:34:44.206Z,19.61
2022-09-07T08:37:13.698Z,19.48
2022-09-07T08:39:44.198Z,20.43
2022-09-07T08:42:38.593Z,19.53
2022-09-07T08:45:12.794Z,20.61
2022-09-07T08:47:50.492Z,20.72
2022-09-07T08:50:25.944Z,20.74
2022-09-07T08:53:01.230Z,20.86
2022-09-07T08:55:36.751Z,21.06
2022-09-07T08:58:27.116Z,20.93
2022-09-07T09:06:58.888Z,21.25
2022-09-07T09:09:46.985Z,21.38
2022-09-07T09:12:29.190Z,20.61
2022-09-07T09:15:17.650Z,21.26
2022-09-07T09:17:56.225Z,20.47
2022-09-07T09:20:37.129Z,21.65
2022-09-07T09:23:14.500Z,21.77
2022-09-07T09:25:54.285Z,21.77
2022-09-07T09:28:26.456Z,21.78
2022-09-07T09:30:57.603Z,21.64
2022-09-07T09:33:29.202Z,21.62
2022-09-07T09:36:02.316Z,21.57
2022-09-07T09:38:35.473Z,21.69
2022-09-07T09:41:09.955Z,21.77
2022-09-07T09:43:48.213Z,21.78
2022-09-07T09:46:26.996Z,21.33
2022-09-07T09:49:00.448Z,22.21
2022-09-07T09:54:34.597Z,22.29
2022-09-07T09:57:03.655Z,22.40
2022-09-07T10:05:29.733Z,22.80
2022-09-07T10:08:00.008Z,22.55
2022-09-07T10:10:32.734Z,22.52
2022-09-07T10:13:01.561Z,23.00
2022-09-07T10:15:41.315Z,22.98
2022-09-07T10:18:23.009Z,23.19
2022-09-07T10:33:09.197Z,24.56
2022-09-07T10:35:53.007Z,25.05
2022-09-07T10:38:25.037Z,25.34
2022-09-07T10:41:04.178Z,25.74
2022-09-07T10:43:46.372Z,26.01
2022-09-07T10:46:57.882Z,26.15
2022-09-07T10:50:22.016Z,25.17
2022-09-07T10:52:42.101Z,26.35
2022-09-07T10:55:20.989Z,26.38
2022-09-07T10:58:07.782Z,26.95
2022-09-07T11:00:52.228Z,27.01
2022-09-07T11:03:48.281Z,27.75
2022-09-07T11:06:23.740Z,28.19
2022-09-07T11:09:35.684Z,28.30
2022-09-07T11:12:09.634Z,28.87
2022-09-07T11:14:46.333Z,29.10
2022-09-07T11:17:21.830Z,29.19
2022-09-07T11:20:02.871Z,28.86
2022-09-07T11:22:40.168Z,28.48
2022-09-07T11:25:36.867Z,28.24
2022-09-07T11:28:15.742Z,27.97
2022-09-07T11:30:50.609Z,27.74
2022-09-07T11:33:27.181Z,27.39
2022-09-07T11:36:05.119Z,27.49
2022-09-07T11:38:46.760Z,27.46
2022-09-07T11:41:25.541Z,27.82
2022-09-07T11:44:05.716Z,27.64
2022-09-07T11:46:43.329Z,27.16
2022-09-07T11:49:21.197Z,26.95
2022-09-07T11:51:55.004Z,26.93
2022-09-07T11:54:40.076Z,26.90
2022-09-07T11:57:40.715Z,26.89
2022-09-07T12:00:19.142Z,26.35
2022-09-07T12:03:32.128Z,26.58
2022-09-07T12:06:39.642Z,26.41
2022-09-07T12:09:35.488Z,26.34
2022-09-07T12:12:35.693Z,26.13
2022-09-07T12:15:24.904Z,26.27
2022-09-07T12:18:13.217Z,26.28
2022-09-07T12:20:46.923Z,25.50
2022-09-07T12:23:32.474Z,25.86
2022-09-07T12:26:52.399Z,26.25
2022-09-07T12:29:27.573Z,26.34
2022-09-07T12:32:08.556Z,26.37
2022-09-07T12:34:58.050Z,26.29
2022-09-07T12:37:46.784Z,26.26
2022-09-07T12:40:49.272Z,26.44
2022-09-07T12:44:06.236Z,26.98
2022-09-07T12:46:55.230Z,27.56
2022-09-07T12:50:10.092Z,27.89
2022-09-07T12:53:21.403Z,27.90
2022-09-07T12:56:21.688Z,28.86
2022-09-07T12:59:19.850Z,28.81
2022-09-07T13:02:01.605Z,29.53
2022-09-07T13:04:59.679Z,29.59
2022-09-07T13:08:08.216Z,29.52
2022-09-07T13:10:40.744Z,29.88
2022-09-07T13:20:18.264Z,29.84
2022-09-07T13:23:30.501Z,28.97
2022-09-07T13:26:01.493Z,28.72
2022-09-07T13:28:42.709Z,28.39
2022-09-07T13:31:40.327Z,28.08
2022-09-07T13:35:04.199Z,27.82
2022-09-07T13:37:45.355Z,27.61
2022-09-07T13:40:23.367Z,27.08
2022-09-07T13:42:53.491Z,27.11
2022-09-07T13:45:33.738Z,27.37
2022-09-07T13:48:18.109Z,27.85
2022-09-07T13:51:01.377Z,28.19
2022-09-07T13:53:47.285Z,28.59
2022-09-07T13:56:35.038Z,28.79
2022-09-07T13:59:19.698Z,28.86
2022-09-07T14:01:51.856Z,28.50
2022-09-07T14:04:26.818Z,28.33
2022-09-07T14:07:04.204Z,28.18
2022-09-07T14:09:33.824Z,28.02
2022-09-07T14:12:15.018Z,27.94
2022-09-07T14:14:43.606Z,27.22
2022-09-07T14:17:16.810Z,27.09
2022-09-07T14:19:49.427Z,26.65
2022-09-07T14:22:21.479Z,26.34
2022-09-07T14:24:54.178Z,26.57
2022-09-07T14:27:27.127Z,26.91
2022-09-07T14:29:55.734Z,26.47
2022-09-07T14:32:27.322Z,26.38
2022-09-07T14:34:56.397Z,26.37
2022-09-07T14:37:25.686Z,26.41
2022-09-07T14:39:56.548Z,26.39
2022-09-07T14:42:27.578Z,25.49
2022-09-07T14:45:18.587Z,25.96
2022-09-07T14:47:51.978Z,26.37
2022-09-07T14:50:24.254Z,26.32
2022-09-07T14:55:48.073Z,26.20
2022-09-07T14:58:26.925Z,26.11
2022-09-07T15:04:02.150Z,24.45
2022-09-07T15:07:07.616Z,25.75
2022-09-07T15:09:39.420Z,25.09
2022-09-07T15:12:30.060Z,25.47
2022-09-07T15:15:26.279Z,24.90
2022-09-07T15:18:04.355Z,24.79
2022-09-07T15:20:43.357Z,24.06
2022-09-07T15:23:15.857Z,24.47
2022-09-07T15:25:51.134Z,24.87
2022-09-07T15:34:13.956Z,23.51
2022-09-07T15:36:48.750Z,23.83
2022-09-07T15:39:21.669Z,23.33
2022-09-07T15:41:51.666Z,24.27
2022-09-07T15:44:26.546Z,24.30
2022-09-07T15:49:51.473Z,23.83
2022-09-07T15:59:49.966Z,24.87
2022-09-07T16:05:14.427Z,26.28
2022-09-07T16:10:35.003Z,25.51
2022-09-07T16:13:10.460Z,25.96
2022-09-07T16:15:45.552Z,25.28
2022-09-07T16:18:18.975Z,24.92
2022-09-07T16:20:53.259Z,24.98
2022-09-07T16:23:22.814Z,25.28
2022-09-07T16:25:59.939Z,23.90
2022-09-07T16:28:31.718Z,23.51
2022-09-07T16:31:01.164Z,24.76
2022-09-07T16:33:36.993Z,23.73
2022-09-07T16:36:13.133Z,23.95
2022-09-07T16:38:45.020Z,23.48
2022-09-07T16:41:22.997Z,22.56
2022-09-07T16:43:52.576Z,22.91
2022-09-07T16:46:27.045Z,23.23
2022-09-07T16:48:57.678Z,24.13
2022-09-07T16:51:28.587Z,24.04
2022-09-07T16:53:59.875Z,23.35
2022-09-07T16:56:35.673Z,22.47
2022-09-07T16:59:10.043Z,22.16
2022-09-07T17:01:41.055Z,22.64
2022-09-07T17:04:12.205Z,23.25
2022-09-07T17:06:54.769Z,21.73
2022-09-07T17:09:26.819Z,21.78
2022-09-07T17:11:56.137Z,22.76
2022-09-07T17:14:24.889Z,22.97
2022-09-07T17:16:54.019Z,21.16
2022-09-07T17:19:31.655Z,22.16
2022-09-07T17:22:05.943Z,22.52
2022-09-07T17:24:34.589Z,22.43
2022-09-07T17:27:03.753Z,20.87
2022-09-07T17:29:37.018Z,21.60
2022-09-07T17:32:23.871Z,22.11
2022-09-07T17:34:55.658Z,21.71
2022-09-07T17:37:25.707Z,21.91
2022-09-07T17:39:57.383Z,21.94
2022-09-07T17:43:38.735Z,20.42
2022-09-07T17:45:17.658Z,20.73
2022-09-07T17:47:46.670Z,20.33
2022-09-07T17:50:17.145Z,20.23
2022-09-07T17:52:46.251Z,21.50
2022-09-07T17:55:15.332Z,21.61
2022-09-07T17:57:44.193Z,21.52
2022-09-07T18:00:15.386Z,20.41
2022-09-07T18:02:44.607Z,20.83
2022-09-07T18:05:16.839Z,21.37
2022-09-07T18:07:47.123Z,21.04
2022-09-07T18:10:16.707Z,21.27
2022-09-07T18:12:45.774Z,20.77
2022-09-07T18:15:14.926Z,21.12
2022-09-07T18:17:44.012Z,21.00
2022-09-07T18:20:12.947Z,20.23
2022-09-07T18:22:43.156Z,20.36
2022-09-07T18:25:11.972Z,19.97
2022-09-07T18:27:41.388Z,20.74
2022-09-07T18:30:12.002Z,20.79
2022-09-07T18:32:41.261Z,20.79
2022-09-07T18:36:01.473Z,20.79
2022-09-07T18:38:32.645Z,20.53
2022-09-07T18:41:05.495Z,20.71
2022-09-07T18:43:37.987Z,18.87
2022-09-07T18:46:09.880Z,19.99
2022-09-07T18:48:38.961Z,19.81
2022-09-07T18:51:09.774Z,20.40
2022-09-07T18:53:40.618Z,20.46
2022-09-07T18:56:14.737Z,20.36
2022-09-07T18:58:44.214Z,19.70
2022-09-07T19:01:15.853Z,19.85
2022-09-07T19:03:53.026Z,20.32
2022-09-07T19:06:22.334Z,19.85
2022-09-07T19:08:54.013Z,19.85
2022-09-07T19:11:25.369Z,20.46
2022-09-07T19:13:57.545Z,18.81
2022-09-07T19:16:28.020Z,20.59
2022-09-07T19:18:59.003Z,20.63
2022-09-07T19:21:31.155Z,20.49
2022-09-07T19:24:03.701Z,20.56
2022-09-07T19:26:35.389Z,20.50
2022-09-07T19:29:10.349Z,19.36
2022-09-07T19:31:39.194Z,20.23
2022-09-07T19:34:07.826Z,20.27
2022-09-07T19:36:36.903Z,20.22
2022-09-07T19:39:07.692Z,19.45
2022-09-07T19:41:38.252Z,20.09
2022-09-07T19:44:06.896Z,19.87
2022-09-07T19:46:35.784Z,19.64
2022-09-07T19:49:04.912Z,19.80
2022-09-07T19:51:36.696Z,19.73
2022-09-07T19:54:07.891Z,19.63
2022-09-07T19:56:39.166Z,19.55
2022-09-07T19:59:08.933Z,19.55
2022-09-07T20:01:38.756Z,19.55
2022-09-07T20:04:17.414Z,19.55
2022-09-07T20:06:50.349Z,19.55
2022-09-07T20:09:21.484Z,19.40
2022-09-07T20:11:50.134Z,19.61
2022-09-07T20:14:24.984Z,19.57
2022-09-07T20:16:54.160Z,19.56
2022-09-07T20:19:22.733Z,19.23
2022-09-07T20:21:55.685Z,19.46
2022-09-07T20:24:25.814Z,19.55
2022-09-07T20:26:54.778Z,19.51
2022-09-07T20:29:27.734Z,18.98
2022-09-07T20:31:58.733Z,19.48
2022-09-07T20:34:28.507Z,19.47
2022-09-07T20:36:57.393Z,19.47
2022-09-07T20:39:34.594Z,17.73
2022-09-07T20:42:06.762Z,19.56
2022-09-07T20:44:35.449Z,19.57
2022-09-07T20:47:04.148Z,19.63
2022-09-07T20:49:32.774Z,19.63
2022-09-07T20:52:01.722Z,19.67
2022-09-07T20:54:32.707Z,19.67
2022-09-07T20:57:04.017Z,18.87
2022-09-07T20:59:32.994Z,19.64
2022-09-07T21:02:01.667Z,19.36
2022-09-07T21:04:30.788Z,19.65
2022-09-07T21:06:59.495Z,18.44
2022-09-07T21:09:28.152Z,19.53
2022-09-07T21:11:58.137Z,19.62
2022-09-07T21:14:26.818Z,19.57
2022-09-07T21:16:55.528Z,19.40
2022-09-07T21:19:24.264Z,19.56
2022-09-07T21:22:04.090Z,18.93
2022-09-07T21:24:32.740Z,19.52
2022-09-07T21:27:02.768Z,19.44
2022-09-07T21:29:31.565Z,19.39
2022-09-07T21:32:00.103Z,19.14
2022-09-07T21:34:28.846Z,19.40
2022-09-07T21:36:57.597Z,19.36
2022-09-07T21:39:26.298Z,19.06
2022-09-07T21:41:55.070Z,19.10
2022-09-07T21:44:25.858Z,19.22
2022-09-07T21:46:54.826Z,19.17
2022-09-07T21:49:23.599Z,19.13
2022-09-07T21:51:52.232Z,19.01
2022-09-07T21:54:20.819Z,19.04
2022-09-07T21:56:49.450Z,18.75
2022-09-07T21:59:18.233Z,18.93
2022-09-07T22:01:48.832Z,18.87
2022-09-07T22:04:17.588Z,18.76
2022-09-07T22:06:46.200Z,18.77
2022-09-07T22:09:15.106Z,18.72
2022-09-07T22:11:46.055Z,18.76
2022-09-07T22:14:16.460Z,18.47
2022-09-07T22:16:45.180Z,18.67
2022-09-07T22:19:15.031Z,17.84
2022-09-07T22:21:43.828Z,17.91
2022-09-07T22:24:15.313Z,18.43
2022-09-07T22:26:44.013Z,18.39
2022-09-07T22:29:13.691Z,18.27
2022-09-07T22:31:42.741Z,18.16
2022-09-07T22:34:11.857Z,18.02
2022-09-07T22:36:44.352Z,18.21
2022-09-07T22:39:17.246Z,18.09
2022-09-07T22:41:47.491Z,17.92
2022-09-07T22:44:19.293Z,18.08
2022-09-07T22:46:49.509Z,18.00
2022-09-07T22:49:19.081Z,18.14
2022-09-07T22:51:49.353Z,17.78
2022-09-07T22:54:18.149Z,18.12
2022-09-07T22:56:46.868Z,18.13
2022-09-07T22:59:15.635Z,17.81
2022-09-07T23:01:44.340Z,17.84
2022-09-07T23:04:13.638Z,17.93
2022-09-07T23:06:44.382Z,17.88
2022-09-07T23:09:17.590Z,17.69
2022-09-07T23:11:48.507Z,17.82
2022-09-07T23:14:20.655Z,17.81
2022-09-07T23:16:50.626Z,17.84
2022-09-07T23:19:20.720Z,17.63
2022-09-07T23:21:49.665Z,17.71
2022-09-07T23:24:20.245Z,17.54
2022-09-07T23:26:49.612Z,17.60
2022-09-07T23:29:20.728Z,17.59
2022-09-07T23:31:49.705Z,17.30
2022-09-07T23:34:18.535Z,17.43
2022-09-07T23:36:47.159Z,17.51
2022-09-07T23:39:15.714Z,17.47
2022-09-07T23:41:45.793Z,17.48
2022-09-07T23:44:14.475Z,17.39
2022-09-07T23:46:43.131Z,16.92
2022-09-07T23:49:11.759Z,17.26
2022-09-07T23:51:40.321Z,17.22
2022-09-07T23:54:09.538Z,17.19
2022-09-07T23:56:39.127Z,17.10
2022-09-07T23:59:12.305Z,17.15
